Thunder radar more information blitzortung!


Radar de pluja more information rain snow radar


Visita la nostra xarxa de llocs de meteo:

Template documentation
and downloads

And another site



No particular awareness of the weather is required.    There are no Weather-warnings

Pagina Historial Weather Underground text

Diari Resum May 28, 2017 Unitats:  Mètric    Imperial   Tant
« Previous Dia
SegĂźent Dia »
Diari Setmana Mensual Anual Personalitzada
  Maxima: Minima: Media:
Temperatura: -17.8 °C -9.5 °C -5.3 °C
Punt de rosada: -17.8 °C -13.4 °C -11.7 °C
Humitat: Humidity % 32 % 49 %
Wind Speed: 0 km/h 0 km/h 12.2 km/h
RĂ fegues de vent: 0 km/h - -
Vent:- - ESE
Pression baro: 0 hPa 34395 hPa -
Precipitacions: 0 mm    
Historical Graphs
 
 
Dades de taula per May 28, 2017
Temps Temperatura Punt de rosada Pression baro Vent Wind Speed RĂ fegues de vent Humitat Rainfall Rate (Hourly)
-17.8 °C -17.8 °C 0 hPa Calm     Humidity % 0 mm
00:00 -9.2 °C -11.2 °C 34496.6 hPa SW 5.1 km/h 5.1 km/h 80 % 0 mm
00:04 -7.3 °C -10.2 °C 34496.6 hPa NNE 3.1 km/h   72 % 0 mm
00:09 -7.4 °C -10.2 °C 34496.6 hPa Calm     72 % 0 mm
00:10 -9.3 °C -11.1 °C 34462.7 hPa SW 2.6 km/h 5.1 km/h 81 % 0 mm
00:14 -7.4 °C -10.2 °C 34496.6 hPa ENE 3.1 km/h 3.1 km/h 72 % 0 mm
00:20 -9.3 °C -11.2 °C 34462.7 hPa SW 2.6 km/h 5.1 km/h 81 % 0 mm
00:30 -9.4 °C -11.3 °C 34462.7 hPa Calm   5.1 km/h 80 % 0 mm
00:40 -9.4 °C -11.2 °C 34462.7 hPa SW 2.6 km/h 2.6 km/h 81 % 0 mm
00:50 -9.3 °C -11.2 °C 34462.7 hPa WSW 5.1 km/h 5.1 km/h 80 % 0 mm
01:00 -9.5 °C -11.3 °C 34496.6 hPa Calm   5.1 km/h 81 % 0 mm
01:10 -9.5 °C -11.3 °C 34496.6 hPa WSW 2.6 km/h 5.1 km/h 81 % 0 mm
01:20 -9.5 °C -11.4 °C 34496.6 hPa WSW 5.1 km/h 5.1 km/h 80 % 0 mm
01:30 -9.4 °C -11.3 °C 34496.6 hPa WSW 2.6 km/h 5.1 km/h 80 % 0 mm
01:40 -9.4 °C -11.3 °C 34496.6 hPa SW 2.6 km/h 5.1 km/h 80 % 0 mm
01:50 -9.4 °C -11.2 °C 34496.6 hPa SW 2.6 km/h 5.1 km/h 81 % 0 mm
02:00 -9.4 °C -11.2 °C 34496.6 hPa Calm   5.1 km/h 81 % 0 mm
02:10 -9.3 °C -11.1 °C 34496.6 hPa SW 2.6 km/h 5.1 km/h 81 % 0 mm
02:20 -9.2 °C -11.1 °C 34496.6 hPa SW 2.6 km/h 5.1 km/h 80 % 0 mm
02:30 -8.9 °C -10.9 °C 34496.6 hPa Calm   2.6 km/h 80 % 0 mm
02:40 -8.9 °C -10.9 °C 34496.6 hPa WSW 5.1 km/h 5.1 km/h 79 % 0 mm
02:50 -8.8 °C -10.8 °C 34496.6 hPa SW 5.1 km/h 5.1 km/h 79 % 0 mm
03:00 -8.7 °C -10.7 °C 34496.6 hPa SW 2.6 km/h 5.1 km/h 79 % 0 mm
03:10 -8.1 °C -10.3 °C 34533.8 hPa SSW 2.6 km/h 2.6 km/h 77 % 0 mm
03:20 -7.8 °C -10.3 °C 34533.8 hPa South 2.6 km/h 5.1 km/h 75 % 0 mm
03:30 -7.7 °C -10.3 °C 34496.6 hPa SW 2.6 km/h 5.1 km/h 74 % 0 mm
03:40 -7.7 °C -10.3 °C 34533.8 hPa SW 5.1 km/h 5.1 km/h 74 % 0 mm
03:50 -7.3 °C -10.1 °C 34533.8 hPa Calm   2.6 km/h 73 % 0 mm
04:00 -6.8 °C -9.9 °C 34533.8 hPa SW 2.6 km/h 5.1 km/h 70 % 0 mm
04:10 -6.8 °C -10.1 °C 34533.8 hPa SW 2.6 km/h 7.7 km/h 69 % 0 mm
04:20 -6.3 °C -10.1 °C 34533.8 hPa SSW 5.1 km/h 5.1 km/h 65 % 0 mm
04:30 -5.9 °C -9.8 °C 34496.6 hPa SSE 2.6 km/h 5.1 km/h 65 % 0 mm
04:40 -5.6 °C -9.9 °C 34533.8 hPa ESE 2.6 km/h 5.1 km/h 61 % 0 mm
04:50 -5.1 °C -9.7 °C 34533.8 hPa Calm   5.1 km/h 60 % 0 mm
05:00 -5.1 °C -9.8 °C 34533.8 hPa NNE 5.1 km/h 7.7 km/h 59 % 0 mm
05:10 -5.1 °C -10.1 °C 34533.8 hPa NNE 2.6 km/h 7.7 km/h 57 % 0 mm
05:20 -4.8 °C -10.1 °C 34533.8 hPa NE 7.7 km/h 7.7 km/h 55 % 0 mm
05:30 -4.4 °C -10.1 °C 34533.8 hPa NE 7.7 km/h 15.6 km/h 53 % 0 mm
05:40 -4.2 °C -10.1 °C 34533.8 hPa NNE 7.7 km/h 10.3 km/h 52 % 0 mm
05:50 -4.1 °C -10.4 °C 34533.8 hPa NE 7.7 km/h 10.3 km/h 49 % 0 mm
06:00 -3.8 °C -10.3 °C 34496.6 hPa ENE 5.1 km/h 7.7 km/h 48 % 0 mm
11:07 -3.9 °C -10.4 °C 34533.8 hPa ENE 9 km/h 9 km/h 48 % 0 mm
11:12 -3.8 °C -10.7 °C 34533.8 hPa ESE 11.9 km/h 11.9 km/h 46 % 0 mm
11:17 -3.8 °C -10.7 °C 34533.8 hPa ESE 11.9 km/h 11.9 km/h 46 % 0 mm
11:22 -3.6 °C -10.5 °C 34533.8 hPa SE 6.8 km/h 6.8 km/h 46 % 0 mm
11:27 -3.2 °C -10.1 °C 34533.8 hPa NNE 11.9 km/h 11.9 km/h 46 % 0 mm
11:32 -3.4 °C -10.4 °C 34533.8 hPa ESE 11.9 km/h 11.9 km/h 46 % 0 mm
11:37 -3.5 °C -10.6 °C 34533.8 hPa East 11.9 km/h 11.9 km/h 45 % 0 mm
11:42 -3.1 °C -10.3 °C 34533.8 hPa NNW 9 km/h 9 km/h 45 % 0 mm
11:47 -3.3 °C -10.6 °C 34533.8 hPa ESE 15.6 km/h 15.6 km/h 44 % 0 mm
11:52 -3.1 °C -10.3 °C 34533.8 hPa WSW 4.2 km/h   45 % 0 mm
11:57 -2.9 °C -10.1 °C 34533.8 hPa NW 9 km/h 9 km/h 45 % 0 mm
12:02 -2.8 °C -10.6 °C 34533.8 hPa ESE 11.9 km/h 11.9 km/h 42 % 0 mm
12:07 -2.9 °C -10.5 °C 34496.6 hPa ESE 11.9 km/h 11.9 km/h 43 % 0 mm
12:12 -2.8 °C -10.6 °C 34496.6 hPa ESE 15 km/h 15 km/h 42 % 0 mm
12:17 -2.9 °C -10.9 °C 34496.6 hPa ESE 11.9 km/h 11.9 km/h 41 % 0 mm
12:22 -2.8 °C -11 °C 34496.6 hPa ENE 9 km/h 9 km/h 40 % 0 mm
12:27 -2.9 °C -10.9 °C 34496.6 hPa ENE 11.9 km/h 11.9 km/h 41 % 0 mm
12:32 -2.8 °C -11.2 °C 34496.6 hPa SE 11.9 km/h 11.9 km/h 39 % 0 mm
12:37 -2.9 °C -11.3 °C 34496.6 hPa SE 17.9 km/h 17.9 km/h 39 % 0 mm
12:47 -2.5 °C -11.2 °C 34496.6 hPa ESE 23.8 km/h 23.8 km/h 38 % 0 mm
12:52 -2.7 °C -11.1 °C 34462.7 hPa ENE 15 km/h 15 km/h 39 % 0 mm
12:57 -2.6 °C -11.2 °C 34462.7 hPa NE 15 km/h 15 km/h 38 % 0 mm
13:02 -2.5 °C -10.9 °C 34462.7 hPa ENE 15 km/h 15 km/h 39 % 0 mm
13:07 -2.6 °C -11.1 °C 34462.7 hPa East 11.9 km/h 11.9 km/h 39 % 0 mm
13:12 -2.7 °C -11.6 °C 34462.7 hPa ESE 26.9 km/h 26.9 km/h 37 % 0 mm
13:17 -2.6 °C -11.4 °C 34462.7 hPa ENE 17.9 km/h 17.9 km/h 37 % 0 mm
13:27 -2.6 °C -11.4 °C 34462.7 hPa ENE 20.9 km/h 20.9 km/h 37 % 0 mm
13:32 -2.4 °C -11.1 °C 34462.7 hPa East 23.8 km/h 23.8 km/h 38 % 0 mm
13:37 -2.5 °C -11.4 °C 34462.7 hPa ESE 20.9 km/h 20.9 km/h 37 % 0 mm
13:42 -2.6 °C -11.5 °C 34462.7 hPa ESE 17.9 km/h 17.9 km/h 37 % 0 mm
13:47 -2.6 °C -11.3 °C 34462.7 hPa SE 23.8 km/h 23.8 km/h 38 % 0 mm
13:52 -2.6 °C -11.5 °C 34462.7 hPa SE 23.8 km/h 23.8 km/h 37 % 0 mm
13:57 -2.6 °C -11.4 °C 34462.7 hPa ESE 20.9 km/h 20.9 km/h 37 % 0 mm
14:02 -2.6 °C -11.2 °C 34462.7 hPa ESE 20.9 km/h 20.9 km/h 38 % 0 mm
14:07 -2.6 °C -11.2 °C 34462.7 hPa East 15.3 km/h 15.3 km/h 38 % 0 mm
14:12 -2.7 °C -11.3 °C 34462.7 hPa East 25.9 km/h 25.9 km/h 38 % 0 mm
14:17 -2.6 °C -11.2 °C 34462.7 hPa ENE 17.9 km/h 17.9 km/h 38 % 0 mm
14:22 -2.6 °C -11.4 °C 34462.7 hPa East 15 km/h 15 km/h 37 % 0 mm
14:27 -2.7 °C -11.6 °C 34462.7 hPa NNE 26.9 km/h 26.9 km/h 37 % 0 mm
14:32 -2.6 °C -11.4 °C 34462.7 hPa East 20.9 km/h 20.9 km/h 37 % 0 mm
14:37 -2.5 °C -11.4 °C 34462.7 hPa ESE 17.9 km/h 17.9 km/h 37 % 0 mm
14:42 -2.4 °C -11.3 °C 34462.7 hPa East 15 km/h 15 km/h 37 % 0 mm
14:47 -2.4 °C -11.3 °C 34462.7 hPa ESE 17.9 km/h 17.9 km/h 37 % 0 mm
14:52 -2.5 °C -11.4 °C 34462.7 hPa ESE 23.8 km/h 23.8 km/h 37 % 0 mm
14:57 -2.3 °C -11 °C 34462.7 hPa East 15 km/h 15 km/h 38 % 0 mm
15:02 -2.5 °C -11.2 °C 34462.7 hPa ESE 29 km/h 29 km/h 38 % 0 mm
15:07 -2.7 °C -11.3 °C 34462.7 hPa ESE 20.9 km/h 20.9 km/h 38 % 0 mm
15:12 -2.6 °C -11.3 °C 34462.7 hPa East 20.9 km/h 20.9 km/h 38 % 0 mm
15:17 -2.7 °C -11.3 °C 34462.7 hPa East 20.9 km/h 20.9 km/h 38 % 0 mm
15:22 -2.8 °C -11.4 °C 34462.7 hPa ESE 23.8 km/h 23.8 km/h 38 % 0 mm
15:23 -2.8 °C -11.4 °C 34462.7 hPa ESE 23.8 km/h 23.8 km/h 38 % 0 mm
15:28 -2.7 °C -11.3 °C 34462.7 hPa ESE 31.4 km/h 31.4 km/h 38 % 0 mm
15:33 -2.8 °C -11.6 °C 34462.7 hPa SSE 20.9 km/h 20.9 km/h 37 % 0 mm
15:38 -2.7 °C -11.6 °C 34462.7 hPa SE 26.9 km/h 26.9 km/h 37 % 0 mm
15:43 -2.7 °C -11.3 °C 34462.7 hPa East 20.9 km/h 20.9 km/h 38 % 0 mm
15:48 -2.8 °C -11.4 °C 34462.7 hPa ESE 29.8 km/h 29.8 km/h 38 % 0 mm
15:53 -2.9 °C -11.6 °C 34462.7 hPa East 23.8 km/h 23.8 km/h 38 % 0 mm
15:58 -2.9 °C -11.5 °C 34462.7 hPa ESE 20.9 km/h 20.9 km/h 38 % 0 mm
16:03 -3 °C -11.8 °C 34462.7 hPa ESE 26.9 km/h 26.9 km/h 37 % 0 mm
16:08 -3.1 °C -11.9 °C 34462.7 hPa ENE 32.8 km/h 32.8 km/h 37 % 0 mm
16:13 -3 °C -11.8 °C 34462.7 hPa East 29.8 km/h 29.8 km/h 37 % 0 mm
16:18 -2.8 °C -11.7 °C 34462.7 hPa ENE 20.9 km/h 20.9 km/h 37 % 0 mm
16:23 -2.9 °C -11.8 °C 34428.8 hPa ESE 23.8 km/h 23.8 km/h 37 % 0 mm
16:28 -2.8 °C -11.9 °C 34428.8 hPa East 20.9 km/h 20.9 km/h 36 % 0 mm
16:33 -2.8 °C -12.1 °C 34428.8 hPa East 23.8 km/h 23.8 km/h 35 % 0 mm
16:38 -2.8 °C -12.3 °C 34428.8 hPa East 23.8 km/h 23.8 km/h 34 % 0 mm
16:43 -2.9 °C -12.2 °C 34428.8 hPa ENE 26.9 km/h 26.9 km/h 35 % 0 mm
16:48 -2.9 °C -12.4 °C 34428.8 hPa ESE 26.9 km/h 26.9 km/h 34 % 0 mm
16:53 -3 °C -12.6 °C 34462.7 hPa ESE 20.9 km/h 20.9 km/h 34 % 0 mm
16:58 -3 °C -12.3 °C 34462.7 hPa ENE 20.9 km/h 20.9 km/h 35 % 0 mm
17:03 -3 °C -12.6 °C 34462.7 hPa South 22.5 km/h 22.5 km/h 34 % 0 mm
17:08 -3.1 °C -12.9 °C 34462.7 hPa ENE 23.8 km/h 23.8 km/h 33 % 0 mm
17:13 -3.2 °C -12.7 °C 34462.7 hPa ESE 26.9 km/h 26.9 km/h 34 % 0 mm
17:18 -3.2 °C -12.7 °C 34462.7 hPa East 32.8 km/h 32.8 km/h 34 % 0 mm
17:23 -3.2 °C -12.7 °C 34462.7 hPa ENE 26.4 km/h 26.4 km/h 34 % 0 mm
17:28 -3.3 °C -12.8 °C 34462.7 hPa East 29.8 km/h 29.8 km/h 34 % 0 mm
17:33 -3.2 °C -12.9 °C 34462.7 hPa ESE 26.9 km/h 26.9 km/h 33 % 0 mm
17:38 -3.2 °C -12.9 °C 34462.7 hPa ESE 26.9 km/h 26.9 km/h 33 % 0 mm
17:43 -3.2 °C -12.9 °C 34462.7 hPa ESE 20.9 km/h 20.9 km/h 33 % 0 mm
17:48 -3.2 °C -13.2 °C 34462.7 hPa ESE 29.8 km/h 29.8 km/h 32 % 0 mm
17:53 -3.3 °C -13 °C 34462.7 hPa ESE 26.9 km/h 26.9 km/h 33 % 0 mm
17:58 -3.3 °C -13.1 °C 34462.7 hPa ESE 29.8 km/h 29.8 km/h 33 % 0 mm
18:03 -3.4 °C -13.4 °C 34462.7 hPa East 26.9 km/h 26.9 km/h 32 % 0 mm
18:08 -3.5 °C -13.2 °C 34462.7 hPa SE 26.9 km/h 26.9 km/h 33 % 0 mm
18:13 -3.5 °C -12.9 °C 34462.7 hPa ESE 26.9 km/h 26.9 km/h 34 % 0 mm
18:18 -3.6 °C -13.1 °C 34462.7 hPa ESE 26.9 km/h 26.9 km/h 34 % 0 mm
18:23 -3.6 °C -12.8 °C 34428.8 hPa ESE 17.9 km/h 17.9 km/h 35 % 0 mm
18:28 -3.7 °C -12.9 °C 34428.8 hPa ESE 26.9 km/h 26.9 km/h 35 % 0 mm
18:33 -3.7 °C -12.9 °C 34428.8 hPa ESE 20.9 km/h 20.9 km/h 35 % 0 mm
18:38 -3.8 °C -12.9 °C 34428.8 hPa ESE 32.8 km/h 32.8 km/h 35 % 0 mm
18:43 -3.8 °C -12.7 °C 34428.8 hPa East 20.9 km/h 20.9 km/h 36 % 0 mm
18:48 -3.9 °C -12.8 °C 34428.8 hPa East 29.8 km/h 29.8 km/h 36 % 0 mm
18:53 -4 °C -12.7 °C 34428.8 hPa SE 26.9 km/h 26.9 km/h 37 % 0 mm
18:58 -4.1 °C -12.8 °C 34428.8 hPa ESE 29.8 km/h 29.8 km/h 37 % 0 mm
19:03 -4.1 °C -12.8 °C 34428.8 hPa ESE 20.9 km/h 20.9 km/h 37 % 0 mm
19:08 -4.1 °C -12.8 °C 34395 hPa ENE 20.9 km/h 20.9 km/h 37 % 0 mm
19:13 -4.2 °C -12.9 °C 34395 hPa ESE 23.8 km/h 23.8 km/h 37 % 0 mm
19:18 -4.2 °C -12.7 °C 34395 hPa ESE 20.9 km/h 20.9 km/h 38 % 0 mm
19:20 -7.1 °C -12 °C 34462.7 hPa Calm     57 % 0 mm
19:23 -4.2 °C -12.4 °C 34428.8 hPa SE 15 km/h 15 km/h 39 % 0 mm
19:28 -4.2 °C -12.7 °C 34428.8 hPa ESE 16.1 km/h 16.1 km/h 38 % 0 mm
19:30 -7.2 °C -11.9 °C 34462.7 hPa Calm     58 % 0 mm
19:33 -4.3 °C -12.6 °C 34428.8 hPa East 23.8 km/h 23.8 km/h 39 % 0 mm
19:38 -4.3 °C -12.6 °C 34395 hPa South 15 km/h 15 km/h 39 % 0 mm
19:40 -7.3 °C -11.8 °C 34462.7 hPa NE 2.6 km/h 2.6 km/h 59 % 0 mm
19:43 -4.3 °C -12.6 °C 34395 hPa SE 15 km/h 15 km/h 39 % 0 mm
19:48 -4.3 °C -12.4 °C 34395 hPa SE 20.3 km/h 20.3 km/h 40 % 0 mm
19:50 -7.4 °C -11.8 °C 34462.7 hPa Calm   2.6 km/h 60 % 0 mm
19:53 -4.5 °C -12.5 °C 34428.8 hPa ESE 17.9 km/h 17.9 km/h 40 % 0 mm
19:58 -4.5 °C -12.5 °C 34428.8 hPa South 11.9 km/h 11.9 km/h 40 % 0 mm
20:00 -7.6 °C -11.9 °C 34462.7 hPa ENE 2.6 km/h 2.6 km/h 60 % 0 mm
20:03 -4.7 °C -12.7 °C 34428.8 hPa ESE 15 km/h 15 km/h 40 % 0 mm
20:08 -4.7 °C -12.7 °C 34428.8 hPa ESE 17.9 km/h 17.9 km/h 40 % 0 mm
20:10 -7.7 °C -11.9 °C 34462.7 hPa ENE 2.6 km/h 5.1 km/h 61 % 0 mm
20:13 -4.8 °C -12.6 °C 34428.8 hPa ESE 19.6 km/h 19.6 km/h 41 % 0 mm
20:18 -4.9 °C -12.7 °C 34428.8 hPa ENE 17.9 km/h 17.9 km/h 41 % 0 mm
20:20 -7.8 °C -12 °C 34462.7 hPa Calm   5.1 km/h 61 % 0 mm
20:23 -4.9 °C -12.7 °C 34428.8 hPa SSE 20.9 km/h 20.9 km/h 41 % 0 mm
20:28 -5 °C -12.6 °C 34428.8 hPa East 15 km/h 15 km/h 42 % 0 mm
20:30 -7.8 °C -12.1 °C 34462.7 hPa Calm   2.6 km/h 61 % 0 mm
20:33 -5.1 °C -12.4 °C 34428.8 hPa East 16.1 km/h 16.1 km/h 43 % 0 mm
20:38 -5.2 °C -12.3 °C 34428.8 hPa East 11.9 km/h 11.9 km/h 44 % 0 mm
20:40 -7.9 °C -12 °C 34462.7 hPa Calm   2.6 km/h 62 % 0 mm
20:43 -5.3 °C -12.4 °C 34428.8 hPa ESE 10.3 km/h 10.3 km/h 44 % 0 mm
20:48 -5.3 °C -12.4 °C 34428.8 hPa ESE 9 km/h 9 km/h 44 % 0 mm
20:50 -8 °C -12.1 °C 34462.7 hPa NE 2.6 km/h 5.1 km/h 62 % 0 mm
20:53 -5.4 °C -12.3 °C 34428.8 hPa ESE 11.9 km/h 11.9 km/h 45 % 0 mm
20:58 -5.4 °C -12.4 °C 34428.8 hPa ESE 11.9 km/h 11.9 km/h 45 % 0 mm
21:00 -8.1 °C -12 °C 34462.7 hPa NE 2.6 km/h 5.1 km/h 63 % 0 mm
21:03 -5.5 °C -12.4 °C 34428.8 hPa ESE 17.9 km/h 17.9 km/h 45 % 0 mm
21:08 -5.6 °C -12.3 °C 34428.8 hPa ESE 9 km/h 9 km/h 46 % 0 mm
21:10 -8.1 °C -12.1 °C 34428.8 hPa Calm   2.6 km/h 63 % 0 mm
21:13 -5.6 °C -12.3 °C 34428.8 hPa SE 11.9 km/h 11.9 km/h 46 % 0 mm
21:18 -5.6 °C -12.2 °C 34428.8 hPa ESE 11.9 km/h 11.9 km/h 47 % 0 mm
21:20 -8.1 °C -12.1 °C 34428.8 hPa NE 2.6 km/h 5.1 km/h 63 % 0 mm
21:23 -5.7 °C -12.3 °C 34428.8 hPa SSE 9 km/h 9 km/h 47 % 0 mm
21:28 -5.7 °C -12.3 °C 34428.8 hPa East 9 km/h 9 km/h 47 % 0 mm
21:30 -8.2 °C -12.2 °C 34428.8 hPa NE 2.6 km/h 2.6 km/h 63 % 0 mm
21:33 -5.8 °C -12.3 °C 34428.8 hPa SE 6 km/h 6 km/h 47 % 0 mm
21:38 -5.8 °C -12.2 °C 34428.8 hPa East 6 km/h 6 km/h 48 % 0 mm
21:40 -8.2 °C -12.3 °C 34428.8 hPa NE 2.6 km/h 5.1 km/h 62 % 0 mm
21:43 -5.9 °C -12.3 °C 34428.8 hPa ENE 6.3 km/h 6.3 km/h 48 % 0 mm
21:48 -6 °C -12.4 °C 34428.8 hPa ESE 6 km/h 6 km/h 48 % 0 mm
21:50 -8.3 °C -12.2 °C 34395 hPa Calm   2.6 km/h 63 % 0 mm
21:53 -6 °C -12.4 °C 34462.7 hPa NE 6 km/h 6 km/h 48 % 0 mm
21:58 -6.1 °C -12.3 °C 34462.7 hPa ENE 6 km/h   49 % 0 mm
22:00 -8.4 °C -12.2 °C 34395 hPa Calm     64 % 0 mm
22:03 -6.1 °C -12.3 °C 34462.7 hPa ENE 6 km/h 6 km/h 49 % 0 mm
22:08 -6.1 °C -12.3 °C 34462.7 hPa NNE 7.6 km/h 7.6 km/h 49 % 0 mm
22:10 -8.4 °C -12.1 °C 34395 hPa Calm     65 % 0 mm
22:13 -6.2 °C -12.2 °C 34462.7 hPa ENE 6 km/h 6 km/h 50 % 0 mm
22:18 -6.2 °C -12.2 °C 34462.7 hPa NNE 6 km/h 6 km/h 50 % 0 mm
22:20 -8.6 °C -12.3 °C 34395 hPa NE 2.6 km/h 2.6 km/h 65 % 0 mm
22:23 -6.2 °C -12.1 °C 34462.7 hPa NE 9 km/h 9 km/h 51 % 0 mm
22:28 -6.2 °C -12.1 °C 34462.7 hPa NE 6 km/h 6 km/h 51 % 0 mm
22:30 -8.8 °C -12.3 °C 34395 hPa Calm   2.6 km/h 66 % 0 mm
22:33 -6.3 °C -12.1 °C 34462.7 hPa NE 6.3 km/h 6.3 km/h 51 % 0 mm
22:38 -6.3 °C -12.1 °C 34462.7 hPa NNE 6 km/h 6 km/h 51 % 0 mm
22:40 -8.9 °C -12.4 °C 34395 hPa Calm     66 % 0 mm
22:43 -6.4 °C -12.1 °C 34462.7 hPa NNE 6 km/h 6 km/h 52 % 0 mm
22:48 -6.4 °C -12.1 °C 34462.7 hPa NE 6 km/h 6 km/h 52 % 0 mm
22:50 -9 °C -12.7 °C 34395 hPa Calm     65 % 0 mm
22:53 -6.4 °C -11.9 °C 34462.7 hPa NE 3.1 km/h   53 % 0 mm
22:58 -6.5 °C -12 °C 34462.7 hPa NNE 3.7 km/h 3.7 km/h 53 % 0 mm
23:00 -9 °C -12.7 °C 34395 hPa SW 5.1 km/h 5.1 km/h 65 % 0 mm
23:03 -6.6 °C -12.1 °C 34462.7 hPa Calm     53 % 0 mm
23:08 -6.6 °C -11.9 °C 34462.7 hPa NNE 3.1 km/h 3.1 km/h 54 % 0 mm
23:10 -9.1 °C -12.7 °C 34395 hPa SW 2.6 km/h 5.1 km/h 65 % 0 mm
23:13 -6.6 °C -11.9 °C 34462.7 hPa NNE 3.7 km/h 3.7 km/h 54 % 0 mm
23:18 -6.6 °C -11.9 °C 34462.7 hPa NE 6 km/h 6 km/h 54 % 0 mm
23:20 -9.1 °C -12.7 °C 34395 hPa WSW 2.6 km/h 5.1 km/h 65 % 0 mm
23:23 -6.7 °C -11.8 °C 34462.7 hPa Calm     55 % 0 mm
23:28 -6.7 °C -11.9 °C 34462.7 hPa Calm     55 % 0 mm
23:30 -9.1 °C -12.7 °C 34395 hPa SW 2.6 km/h 2.6 km/h 65 % 0 mm
23:33 -6.8 °C -11.9 °C 34462.7 hPa Calm     55 % 0 mm
23:38 -6.8 °C -12 °C 34428.8 hPa Calm     55 % 0 mm
23:40 -9.1 °C -12.6 °C 34395 hPa Calm   2.6 km/h 66 % 0 mm
23:43 -6.9 °C -11.9 °C 34428.8 hPa Calm     56 % 0 mm
23:48 -6.9 °C -11.9 °C 34428.8 hPa NE 3.1 km/h   56 % 0 mm
23:50 -9.1 °C -12.6 °C 34395 hPa Calm     66 % 0 mm
23:53 -6.9 °C -11.9 °C 34462.7 hPa Calm     56 % 0 mm
23:58 -6.9 °C -11.8 °C 34462.7 hPa Calm     57 % 0 mm
Meteo Sesrovires
Elogis d' Weather Underground - 2 mb

Guio original per  Jim McMurry - jmcmurry@mwt.net Adaptat per a la plantilla per  Wim van der Kuil - Leuven-Template.eu

Trobareu la nostra informacio del temps tambe a:

Weather Underground

AWEKAS